New Harbor, ME

43° 52' 34"N, 69° 29' 40"W, Elevation 65 ft.
Eastern Time

Hourly observations for the last 72 hours

Date Time Temperature (°F) Humi-
dity

(%)
Wind
(mph)
Pressure Rain (in) Sun
(W/m2)
ET
(in)
Air Dew 6 Hour 1 Hr 3 Hr 6 Hr Day
Alt
(in)
Sea
Level

(mb)
Max Min
26 20:00 53.3 50.7 57.4 50.3 91 WNW 3 G 11 29.63 1003.3 1.03 0 0.050
26 19:00 51.0 48.5 91 WSW 1 G 6 29.58 1001.7 1.03 14 0.049
26 18:00 54.1 50.6 88 WSW 2 G 9 29.56 1001.0 1.03 202 0.044
26 17:00 56.6 52.8 87 SSW 4 G 9 29.54 1000.5 1.03 376 0.035
26 16:00 53.6 51.0 91 SW 4 G 8 29.53 1000.1 1.03 573 0.027
26 15:00 53.2 51.5 94 SSW 2 G 10 29.52 999.9 1.03 350 0.017
26 14:00 52.1 51.8 52.1 46.8 99 SW 4 G 8 29.51 999.5 0.01 0.35 1.03 624 0.009
26 13:00 48.9 48.6 99 S 2 G 6 29.51 999.5 1.03 183 0.006
26 12:00 47.9 47.4 98 SSE 2 G 3 29.52 999.9 0.01 1.03 81 0.004
26 11:00 49.0 48.7 99 NNW 1 G 3 29.52 999.7 0.07 0.34 1.02 137 0.002
26 10:00 47.9 47.6 99 E 1 G 2 29.53 1000.1 0.17 0.95 81 0.001
26 09:00 47.9 47.6 99 SSE 0 G 2 29.55 1000.7 0.10 0.78 33 0.000
26 08:00 47.4 47.1 47.6 46.5 99 SSE 0 G 2 29.57 1001.2 0.01 0.06 0.53 0.68 33 0.000
26 07:00 46.9 46.4 98 E 2 G 4 29.58 1001.8 0.01 0.67 18 0.000
26 06:00 46.7 46.2 98 E 1 G 2 29.59 1002.2 0.04 0.66 0 0.000
26 05:00 46.6 46.1 98 SE 3 G 4 29.61 1002.6 0.10 0.47 0.62 0 0.000
26 04:00 47.1 46.6 98 SSE 5 G 11 29.63 1003.5 0.10 0.52 0 0.000
26 03:00 47.0 46.5 98 SSE 5 G 10 29.65 1004.0 0.27 0.42 0 0.000
26 02:00 46.6 46.1 48.2 46.4 98 SSE 3 G 7 29.67 1004.7 0.10 0.23 0.73 0.15 0 0.000
26 01:00 46.6 46.1 98 SE 4 G 9 29.70 1005.7 0.05 0.05 0 0.000
26 00:00 46.7 46.2 98 SE 6 G 14 29.73 1006.9 0.08 0.90 0 0.044
25 23:00 47.5 47.0 98 SSE 8 G 16 29.76 1007.8 0.07 0.50 0.83 0 0.044
25 22:00 47.9 47.4 98 SE 6 G 11 29.79 1008.8 0.15 0.76 0 0.044
25 21:00 47.1 46.3 97 ESE 6 G 11 29.83 1010.2 0.28 0.61 0 0.044
25 20:00 46.7 45.9 51.0 46.4 97 ESE 6 G 9 29.87 1011.5 0.11 0.27 0.28 0.32 0 0.044
25 19:00 46.9 45.8 96 ESE 4 G 9 29.90 1012.5 0.09 0.21 0 0.044
25 18:00 47.8 46.7 96 ESE 3 G 6 29.93 1013.7 0.07 0.12 9 0.044
25 17:00 48.6 46.7 93 E 1 G 3 29.97 1014.9 0.01 0.05 46 0.043
25 16:00 49.1 46.0 89 E 4 G 9 29.99 1015.6 0.05 67 0.040
25 15:00 50.8 48.0 90 ENE 5 G 10 30.02 1016.7 0.01 0.05 330 0.035
25 14:00 48.8 46.9 53.9 48.8 93 E 4 G 8 30.05 1017.7 0.03 0.04 0.04 0.04 155 0.031
25 13:00 51.9 47.5 85 ENE 5 G 9 30.08 1018.5 0.01 0.01 190 0.025
25 12:00 51.8 47.1 84 E 2 G 8 30.10 1019.4 0.00 325 0.020
25 11:00 51.8 46.5 82 SE 2 G 3 30.13 1020.3 0.00 181 0.015
25 10:00 50.7 45.4 82 SSW 2 G 4 30.15 1020.9 0.00 135 0.013
25 09:00 51.4 45.8 81 WSW 4 G 9 30.15 1020.9 0.00 141 0.009
25 08:00 49.0 44.7 49.0 44.9 85 SSW 4 G 8 30.15 1021.1 0.00 142 0.007
25 07:00 46.1 40.9 82 WSW 5 G 10 30.17 1021.7 0.00 62 0.006
25 06:00 45.4 39.9 81 WSW 4 G 7 30.15 1021.1 0.00 18 0.005
25 05:00 45.5 39.0 78 WSW 4 G 7 30.16 1021.2 0.00 0 0.004
25 04:00 45.0 39.5 81 W 2 G 7 30.16 1021.5 0.00 0 0.003
25 03:00 45.4 40.2 82 SW 2 G 6 30.18 1022.0 0.00 0 0.002
25 02:00 45.6 40.4 47.4 45.6 82 SW 4 G 9 30.18 1022.2 0.00 0 0.001
25 01:00 46.2 40.4 80 SSW 5 G 13 30.20 1022.6 0.00 0 0.000
25 00:00 46.3 40.1 79 SSW 6 G 14 30.20 1022.8 0.00 0 0.142
24 23:00 46.5 39.0 75 SW 5 G 14 30.21 1023.0 0.00 0 0.141
24 22:00 46.4 39.3 76 SW 6 G 12 30.21 1023.1 0.00 0 0.140
24 21:00 47.0 39.8 76 SSW 4 G 10 30.21 1023.0 0.00 0 0.139
24 20:00 47.4 40.6 55.7 47.4 77 SW 7 G 11 30.21 1023.0 0.00 0 0.138
24 19:00 48.8 41.2 75 SSW 6 G 13 30.20 1022.9 0.00 21 0.136
24 18:00 50.9 41.8 71 SSW 10 G 21 30.22 1023.3 0.00 83 0.129
24 17:00 54.8 41.6 61 SSW 9 G 17 30.23 1023.7 0.00 420 0.117
24 16:00 55.5 41.0 58 SSW 11 G 19 30.24 1024.2 0.00 613 0.102
24 15:00 54.9 41.3 60 SSW 8 G 17 30.25 1024.5 0.00 719 0.086
24 14:00 54.3 43.2 54.5 46.8 66 SW 7 G 17 30.27 1025.0 0.00 812 0.070
24 13:00 53.7 42.6 66 SSW 6 G 15 30.28 1025.6 0.00 865 0.055
24 12:00 51.3 41.5 69 SW 8 G 19 30.30 1026.2 0.00 744 0.040
24 11:00 50.2 41.2 71 SSW 7 G 15 30.33 1027.0 0.00 596 0.029
24 10:00 49.7 40.7 71 SW 8 G 18 30.33 1027.2 0.00 635 0.017
24 09:00 49.0 40.7 73 SW 6 G 14 30.33 1027.2 0.00 436 0.010
24 08:00 46.9 39.1 46.9 41.9 74 SW 6 G 14 30.33 1027.3 0.00 295 0.007
24 07:00 44.7 37.6 76 SW 6 G 15 30.33 1027.2 0.00 60 0.006
24 06:00 42.7 36.6 79 SW 5 G 9 30.33 1027.3 0.00 16 0.005
24 05:00 42.4 35.7 77 SW 3 G 8 30.34 1027.4 0.00 0 0.004
24 04:00 42.6 35.6 76 SW 3 G 7 30.35 1027.7 0.00 0 0.003
24 03:00 42.5 36.5 79 WSW 2 G 5 30.35 1027.8 0.00 0 0.002
24 02:00 42.5 37.4 45.1 41.8 82 WSW 4 G 8 30.35 1027.9 0.00 0 0.001
24 01:00 42.5 37.1 81 WSW 3 G 9 30.36 1028.2 0.00 0 0.000
24 00:00 42.7 36.3 78 WSW 3 G 9 30.37 1028.6 0.00 0 0.166
23 23:00 44.1 36.0 73 WSW 4 G 11 30.38 1028.7 0.00 0 0.165
23 22:00 44.0 34.9 70 WSW 6 G 11 30.39 1029.1 0.00 0 0.164
23 21:00 44.5 35.7 71 SW 5 G 12 30.38 1028.8 0.00 0 0.163

Data generated by WxSolution Version 1.9.1.2, Build 2018.04.08.